Terminal Aerodrome Forecast
Issued by NWS

Home | Current Version | Previous Version | Text Only | Print | Product List | Glossary On
Versions: 1 2 3 4 5 6 7 8 9 10 11 12 13 14 15 16 17 18 19 20 21
918
FTUS43 KSGF 261019 AAA
TAFJLN
TAF AMD
KJLN 261019Z 2610/2706 35006KT 6SM BR BKN200
      TEMPO 2610/2613 3SM BR
     FM261300 36008KT P6SM SKC=

USA.gov is the U.S. government's official web portal to all federal, state and local government web resources and services.